createdAt,value
2023-02-03T00:02:15.512Z,10.40
2023-02-03T00:04:42.647Z,14.15
2023-02-03T00:07:14.663Z,11.32
2023-02-03T00:09:41.825Z,10.93
2023-02-03T00:12:09.239Z,10.52
2023-02-03T00:14:37.979Z,16.60
2023-02-03T00:17:06.230Z,9.63
2023-02-03T00:19:33.395Z,12.23
2023-02-03T00:22:01.316Z,14.02
2023-02-03T00:24:28.599Z,13.93
2023-02-03T00:26:56.055Z,11.65
2023-02-03T00:29:25.950Z,11.85
2023-02-03T00:31:54.366Z,12.15
2023-02-03T00:34:21.777Z,9.35
2023-02-03T00:36:49.244Z,13.23
2023-02-03T00:39:16.650Z,15.63
2023-02-03T00:41:44.145Z,12.30
2023-02-03T00:44:11.563Z,11.65
2023-02-03T00:46:39.681Z,12.73
2023-02-03T00:49:09.770Z,11.82
2023-02-03T00:51:38.641Z,13.13
2023-02-03T00:54:05.883Z,16.50
2023-02-03T00:56:33.416Z,14.18
2023-02-03T00:59:00.707Z,11.77
2023-02-03T01:01:28.302Z,15.07
2023-02-03T01:03:56.592Z,12.95
2023-02-03T01:06:24.454Z,15.57
2023-02-03T01:08:52.158Z,11.32
2023-02-03T01:11:22.893Z,12.80
2023-02-03T01:13:51.679Z,14.27
2023-02-03T01:16:22.002Z,17.27
2023-02-03T01:18:50.625Z,18.58
2023-02-03T01:21:21.282Z,23.48
2023-02-03T01:23:48.679Z,20.08
2023-02-03T01:26:19.248Z,19.40
2023-02-03T01:29:06.232Z,20.55
2023-02-03T01:31:37.272Z,15.90
2023-02-03T01:34:13.394Z,22.40
2023-02-03T01:36:40.722Z,15.50
2023-02-03T01:39:08.570Z,21.17
2023-02-03T01:41:38.256Z,17.70
2023-02-03T01:44:55.232Z,16.08
2023-02-03T01:47:36.504Z,17.98
2023-02-03T01:50:25.393Z,20.10
2023-02-03T01:52:59.526Z,17.08
2023-02-03T01:55:33.400Z,17.45
2023-02-03T01:58:14.746Z,21.00
2023-02-03T02:01:33.510Z,14.82
2023-02-03T02:04:03.872Z,16.20
2023-02-03T02:06:31.637Z,15.00
2023-02-03T02:09:00.809Z,13.20
2023-02-03T02:11:28.601Z,19.55
2023-02-03T02:13:59.075Z,21.65
2023-02-03T02:16:46.031Z,20.35
2023-02-03T02:19:33.356Z,19.40
2023-02-03T02:22:20.232Z,18.95
2023-02-03T02:24:59.071Z,12.55
2023-02-03T02:27:36.595Z,10.80
2023-02-03T02:30:36.769Z,11.10
2023-02-03T02:33:41.277Z,13.38
2023-02-03T02:36:30.513Z,17.40
2023-02-03T02:39:12.814Z,18.50
2023-02-03T02:41:46.969Z,16.58
2023-02-03T02:44:30.757Z,13.73
2023-02-03T02:47:03.252Z,11.57
2023-02-03T02:49:30.585Z,12.90
2023-02-03T02:52:01.962Z,16.88
2023-02-03T02:54:32.233Z,12.20
2023-02-03T02:57:04.704Z,10.00
2023-02-03T02:59:32.697Z,13.98
2023-02-03T03:01:59.909Z,14.02
2023-02-03T03:04:30.192Z,11.95
2023-02-03T03:07:07.464Z,17.83
2023-02-03T03:09:47.824Z,12.20
2023-02-03T03:12:22.618Z,13.82
2023-02-03T03:14:59.466Z,9.43
2023-02-03T03:17:32.258Z,8.32
2023-02-03T03:20:04.759Z,7.97
2023-02-03T03:22:38.028Z,7.72
2023-02-03T03:25:12.621Z,8.68
2023-02-03T03:27:44.723Z,6.30
2023-02-03T03:30:18.526Z,7.68
2023-02-03T03:32:46.612Z,9.90
2023-02-03T03:35:14.136Z,9.82
2023-02-03T03:38:00.196Z,9.45
2023-02-03T03:40:34.921Z,12.20
2023-02-03T03:43:11.093Z,8.82
2023-02-03T03:45:45.785Z,8.60
2023-02-03T03:48:24.518Z,6.35
2023-02-03T03:51:09.295Z,7.78
2023-02-03T03:53:41.259Z,10.07
2023-02-03T03:56:15.911Z,9.60
2023-02-03T03:58:47.382Z,14.10
2023-02-03T04:01:16.828Z,10.10
2023-02-03T04:03:50.711Z,9.65
2023-02-03T04:06:18.351Z,9.52
2023-02-03T04:08:45.392Z,8.02
2023-02-03T04:11:32.809Z,8.43
2023-02-03T04:13:59.915Z,8.70
2023-02-03T04:16:27.326Z,8.20
2023-02-03T04:18:54.534Z,10.25
2023-02-03T04:21:22.137Z,9.70
2023-02-03T04:23:50.552Z,10.80
2023-02-03T04:26:18.220Z,9.27
2023-02-03T04:28:45.461Z,8.25
2023-02-03T04:31:13.118Z,9.18
2023-02-03T04:33:40.302Z,10.45
2023-02-03T04:36:08.266Z,8.55
2023-02-03T04:38:35.445Z,7.93
2023-02-03T04:41:02.863Z,8.05
2023-02-03T04:43:30.060Z,10.30
2023-02-03T04:46:00.334Z,10.95
2023-02-03T04:48:28.134Z,11.07
2023-02-03T04:50:55.621Z,6.38
2023-02-03T04:53:22.693Z,9.55
2023-02-03T04:55:50.426Z,8.82
2023-02-03T04:58:17.621Z,7.47
2023-02-03T05:00:45.276Z,8.95
2023-02-03T05:03:12.525Z,8.90
2023-02-03T05:05:40.303Z,8.77
2023-02-03T05:08:08.069Z,15.40
2023-02-03T05:10:35.610Z,12.80
2023-02-03T05:13:03.339Z,9.45
2023-02-03T05:15:30.808Z,10.25
2023-02-03T05:17:58.611Z,14.38
2023-02-03T05:20:26.634Z,12.25
2023-02-03T05:22:53.911Z,13.23
2023-02-03T05:25:21.419Z,17.20
2023-02-03T05:27:48.797Z,14.52
2023-02-03T05:30:17.560Z,21.65
2023-02-03T05:32:44.762Z,17.42
2023-02-03T05:35:12.403Z,16.25
2023-02-03T05:37:40.752Z,21.48
2023-02-03T05:40:35.149Z,17.50
2023-02-03T05:43:02.820Z,19.10
2023-02-03T05:45:30.505Z,17.40
2023-02-03T05:47:57.585Z,19.38
2023-02-03T05:50:27.234Z,25.45
2023-02-03T05:53:08.459Z,28.60
2023-02-03T05:55:37.884Z,29.90
2023-02-03T05:58:05.711Z,28.17
2023-02-03T06:00:33.458Z,34.58
2023-02-03T06:03:03.196Z,26.20
2023-02-03T06:05:34.172Z,20.05
2023-02-03T06:08:02.203Z,25.45
2023-02-03T06:10:30.224Z,23.80
2023-02-03T06:12:57.509Z,25.50
2023-02-03T06:15:24.932Z,22.75
2023-02-03T06:17:52.019Z,27.38
2023-02-03T06:20:20.736Z,23.55
2023-02-03T06:22:48.099Z,21.58
2023-02-03T06:25:15.662Z,21.92
2023-02-03T06:27:42.981Z,20.20
2023-02-03T06:30:11.574Z,19.73
2023-02-03T06:32:39.322Z,19.48
2023-02-03T06:35:07.714Z,14.75
2023-02-03T06:37:35.755Z,22.33
2023-02-03T06:40:05.118Z,17.80
2023-02-03T06:42:32.975Z,22.67
2023-02-03T06:45:00.565Z,17.70
2023-02-03T06:47:28.053Z,17.00
2023-02-03T06:49:56.893Z,19.38
2023-02-03T06:52:24.880Z,14.80
2023-02-03T06:54:53.299Z,17.73
2023-02-03T06:57:21.653Z,16.80
2023-02-03T07:02:19.217Z,18.23
2023-02-03T07:04:46.855Z,21.23
2023-02-03T07:07:14.283Z,21.02
2023-02-03T07:09:42.127Z,22.02
2023-02-03T07:12:10.458Z,17.75
2023-02-03T07:14:39.444Z,119.25
2023-02-03T07:17:07.294Z,42.33
2023-02-03T07:19:34.663Z,171.88
2023-02-03T07:22:01.890Z,171.55
2023-02-03T07:24:29.205Z,55.35
2023-02-03T07:26:56.244Z,118.70
2023-02-03T07:29:23.708Z,112.18
2023-02-03T07:31:50.875Z,60.72
2023-02-03T07:34:18.386Z,59.97
2023-02-03T07:36:45.544Z,123.07
2023-02-03T07:39:13.078Z,85.85
2023-02-03T07:41:40.223Z,57.10
2023-02-03T07:44:09.399Z,22.35
2023-02-03T07:46:39.886Z,19.47
2023-02-03T07:49:08.108Z,14.30
2023-02-03T07:51:35.175Z,17.58
2023-02-03T07:54:02.687Z,19.15
2023-02-03T07:56:30.727Z,23.63
2023-02-03T07:58:59.566Z,22.13
2023-02-03T08:01:26.788Z,21.20
2023-02-03T08:03:55.214Z,19.13
2023-02-03T08:06:22.964Z,15.13
2023-02-03T08:08:50.485Z,18.65
2023-02-03T08:11:17.782Z,18.52
2023-02-03T08:13:45.176Z,16.05
2023-02-03T08:16:12.383Z,17.80
2023-02-03T08:18:39.877Z,13.68
2023-02-03T08:21:06.990Z,16.75
2023-02-03T08:23:34.384Z,17.48
2023-02-03T08:26:01.441Z,18.88
2023-02-03T08:28:28.882Z,16.27
2023-02-03T08:30:57.676Z,15.45
2023-02-03T08:33:25.272Z,14.55
2023-02-03T08:35:52.430Z,12.10
2023-02-03T08:38:21.893Z,14.68
2023-02-03T08:40:49.255Z,22.40
2023-02-03T08:43:16.819Z,20.42
2023-02-03T08:45:44.133Z,69.95
2023-02-03T08:48:11.733Z,51.03
2023-02-03T08:50:42.863Z,30.42
2023-02-03T08:53:11.381Z,51.35
2023-02-03T08:55:43.915Z,19.83
2023-02-03T08:58:11.338Z,16.48
2023-02-03T09:00:38.688Z,16.77
2023-02-03T09:03:06.103Z,17.50
2023-02-03T09:05:33.986Z,21.95
2023-02-03T09:08:01.657Z,22.92
2023-02-03T09:10:29.410Z,20.95
2023-02-03T09:12:57.154Z,24.85
2023-02-03T09:15:24.206Z,31.77
2023-02-03T09:17:51.687Z,26.88
2023-02-03T09:20:19.405Z,22.10
2023-02-03T09:22:46.874Z,22.17
2023-02-03T09:25:16.317Z,31.30
2023-02-03T09:27:43.834Z,22.15
2023-02-03T09:30:11.773Z,21.98
2023-02-03T09:32:39.225Z,22.23
2023-02-03T09:35:06.717Z,25.65
2023-02-03T09:37:34.182Z,27.58
2023-02-03T09:40:01.294Z,24.75
2023-02-03T09:42:54.918Z,25.17
2023-02-03T09:45:28.078Z,24.20
2023-02-03T09:48:03.885Z,25.10
2023-02-03T09:50:35.228Z,19.40
2023-02-03T09:53:27.077Z,21.23
2023-02-03T09:55:55.303Z,17.73
2023-02-03T09:58:23.057Z,19.35
2023-02-03T10:01:01.324Z,20.63
2023-02-03T10:03:54.572Z,17.23
2023-02-03T10:06:39.280Z,19.23
2023-02-03T10:09:18.900Z,22.17
2023-02-03T10:12:04.934Z,22.58
2023-02-03T10:14:44.477Z,22.45
2023-02-03T10:17:23.613Z,22.15
2023-02-03T10:20:09.297Z,19.30
2023-02-03T10:22:48.833Z,19.23
2023-02-03T10:27:44.247Z,19.92
2023-02-03T10:30:22.657Z,21.13
2023-02-03T10:33:11.373Z,27.75
2023-02-03T10:35:52.863Z,23.45
2023-02-03T10:38:43.880Z,23.20
2023-02-03T10:41:11.714Z,23.58
2023-02-03T10:43:48.833Z,29.63
2023-02-03T10:46:22.059Z,26.88
2023-02-03T10:48:49.651Z,27.88
2023-02-03T10:51:23.451Z,28.65
2023-02-03T10:53:54.468Z,26.80
2023-02-03T10:56:29.525Z,26.85
2023-02-03T10:58:59.385Z,25.73
2023-02-03T11:01:38.888Z,24.58
2023-02-03T11:04:09.940Z,26.10
2023-02-03T11:06:55.836Z,21.50
2023-02-03T11:09:34.906Z,24.83
2023-02-03T11:12:22.690Z,21.55
2023-02-03T11:14:53.711Z,21.13
2023-02-03T11:17:24.445Z,21.42
2023-02-03T11:19:59.157Z,19.05
2023-02-03T11:22:41.263Z,24.15
2023-02-03T11:25:38.195Z,18.27
2023-02-03T11:28:07.975Z,19.17
2023-02-03T11:30:35.168Z,20.98
2023-02-03T11:33:03.183Z,20.27
2023-02-03T11:35:31.987Z,21.20
2023-02-03T11:38:01.654Z,18.83
2023-02-03T11:40:29.451Z,21.08
2023-02-03T11:42:57.233Z,17.98
2023-02-03T11:45:26.961Z,21.55
2023-02-03T11:48:16.276Z,20.90
2023-02-03T11:51:03.341Z,22.58
2023-02-03T11:53:56.149Z,23.75
2023-02-03T11:56:42.452Z,20.25
2023-02-03T11:59:25.707Z,20.50
2023-02-03T12:01:58.843Z,19.77
2023-02-03T12:05:00.948Z,19.95
2023-02-03T12:08:04.780Z,20.38
2023-02-03T12:10:38.252Z,21.95
2023-02-03T12:13:17.560Z,20.02
2023-02-03T12:16:03.524Z,21.80
2023-02-03T12:18:47.424Z,19.75
2023-02-03T12:21:44.700Z,21.17
2023-02-03T12:24:33.027Z,17.42
2023-02-03T12:27:32.727Z,19.20
2023-02-03T12:30:11.955Z,18.80
2023-02-03T12:32:48.439Z,17.60
2023-02-03T12:35:15.768Z,22.35
2023-02-03T12:38:12.526Z,18.50
2023-02-03T12:40:49.265Z,20.00
2023-02-03T12:43:28.035Z,21.27
2023-02-03T12:46:04.672Z,23.63
2023-02-03T12:48:52.144Z,23.17
2023-02-03T12:51:31.042Z,22.50
2023-02-03T12:54:05.282Z,25.98
2023-02-03T12:56:40.473Z,19.08
2023-02-03T12:59:22.849Z,21.77
2023-02-03T13:01:56.804Z,22.50
2023-02-03T13:04:49.930Z,21.35
2023-02-03T13:07:26.044Z,17.83
2023-02-03T13:10:04.039Z,21.15
2023-02-03T13:12:37.256Z,17.15
2023-02-03T13:15:28.652Z,16.83
2023-02-03T13:18:11.138Z,17.10
2023-02-03T13:20:39.126Z,16.58
2023-02-03T13:23:12.696Z,15.65
2023-02-03T13:25:43.135Z,15.00
2023-02-03T13:28:38.091Z,14.05
2023-02-03T13:31:39.656Z,13.90
2023-02-03T13:34:21.903Z,14.68
2023-02-03T13:37:06.291Z,14.73
2023-02-03T13:40:07.071Z,10.95
2023-02-03T13:42:41.086Z,11.57
2023-02-03T13:45:23.453Z,14.35
2023-02-03T13:47:55.641Z,12.18
2023-02-03T13:50:27.776Z,12.02
2023-02-03T13:52:58.582Z,13.65
2023-02-03T13:55:39.684Z,12.23
2023-02-03T13:58:20.107Z,9.18
2023-02-03T14:00:47.529Z,11.43
2023-02-03T14:03:39.835Z,10.55
2023-02-03T14:06:35.988Z,10.52
2023-02-03T14:09:35.490Z,8.38
2023-02-03T14:12:33.112Z,9.73
2023-02-03T14:15:15.816Z,11.50
2023-02-03T14:17:43.008Z,12.63
2023-02-03T14:20:27.141Z,11.52
2023-02-03T14:22:54.504Z,14.98
2023-02-03T14:25:22.504Z,15.05
2023-02-03T14:28:09.818Z,13.65
2023-02-03T14:31:07.494Z,14.80
2023-02-03T14:33:57.904Z,14.60
2023-02-03T14:36:31.718Z,14.77
2023-02-03T14:39:21.257Z,14.73
2023-02-03T14:42:01.919Z,15.07
2023-02-03T14:44:35.355Z,17.08
2023-02-03T14:47:31.541Z,21.00
2023-02-03T14:50:09.013Z,20.73
2023-02-03T14:53:24.139Z,21.88
2023-02-03T14:56:01.167Z,22.48
2023-02-03T14:58:50.169Z,21.08
2023-02-03T15:01:29.281Z,24.35
2023-02-03T15:04:12.553Z,21.73
2023-02-03T15:06:41.538Z,24.77
2023-02-03T15:09:43.233Z,19.65
2023-02-03T15:12:19.013Z,23.95
2023-02-03T15:14:46.585Z,24.05
2023-02-03T15:17:22.105Z,26.17
2023-02-03T15:19:50.312Z,26.38
2023-02-03T15:22:22.554Z,28.45
2023-02-03T15:24:58.894Z,27.42
2023-02-03T15:27:29.900Z,32.97
2023-02-03T15:29:59.376Z,28.25
2023-02-03T15:32:41.014Z,25.53
2023-02-03T15:35:19.131Z,31.27
2023-02-03T15:37:53.758Z,28.52
2023-02-03T15:40:24.356Z,30.27
2023-02-03T15:43:04.544Z,31.10
2023-02-03T15:45:36.034Z,28.33
2023-02-03T15:48:19.365Z,29.15
2023-02-03T15:51:14.283Z,29.90
2023-02-03T15:54:03.802Z,27.05
2023-02-03T15:56:41.347Z,28.75
2023-02-03T15:59:26.168Z,30.65
2023-02-03T16:01:54.436Z,30.05
2023-02-03T16:04:23.351Z,28.45
2023-02-03T16:06:53.762Z,30.77
2023-02-03T16:09:41.757Z,29.23
2023-02-03T16:12:29.794Z,29.45
2023-02-03T16:15:00.222Z,26.60
2023-02-03T16:17:34.253Z,32.88
2023-02-03T16:20:21.536Z,28.67
2023-02-03T16:23:19.271Z,28.30
2023-02-03T16:26:15.485Z,30.90
2023-02-03T16:29:01.765Z,33.78
2023-02-03T16:31:48.154Z,28.40
2023-02-03T16:34:38.043Z,27.75
2023-02-03T16:37:47.634Z,32.15
2023-02-03T16:40:39.870Z,30.73
2023-02-03T16:43:31.423Z,27.77
2023-02-03T16:46:19.790Z,31.73
2023-02-03T16:49:06.107Z,24.98
2023-02-03T16:51:40.181Z,28.23
2023-02-03T16:54:11.450Z,23.35
2023-02-03T16:56:39.433Z,22.35
2023-02-03T16:59:07.238Z,21.45
2023-02-03T17:01:36.159Z,23.92
2023-02-03T17:04:03.948Z,29.83
2023-02-03T17:06:33.528Z,27.40
2023-02-03T17:09:01.207Z,24.52
2023-02-03T17:11:29.094Z,21.77
2023-02-03T17:13:57.162Z,21.23
2023-02-03T17:16:26.991Z,18.33
2023-02-03T17:21:29.073Z,18.40
2023-02-03T17:23:58.467Z,16.33
2023-02-03T17:28:54.231Z,18.90
2023-02-03T17:31:22.612Z,21.38
2023-02-03T17:33:52.251Z,19.42
2023-02-03T17:36:24.214Z,19.52
2023-02-03T17:55:32.322Z,16.27
2023-02-03T18:00:32.686Z,15.07
2023-02-03T18:03:01.642Z,17.48
2023-02-03T18:05:29.651Z,21.98
2023-02-03T18:07:59.160Z,17.08
2023-02-03T18:10:31.799Z,24.70
2023-02-03T18:13:00.527Z,18.00
2023-02-03T18:15:28.683Z,21.60
2023-02-03T18:17:57.509Z,22.60
2023-02-03T18:20:25.587Z,19.67
2023-02-03T18:22:54.211Z,20.30
2023-02-03T18:25:22.299Z,23.20
2023-02-03T18:27:52.397Z,25.88
2023-02-03T18:32:53.520Z,21.15
2023-02-03T18:35:21.033Z,28.13
2023-02-03T18:37:48.788Z,19.30
2023-02-03T18:40:16.471Z,25.10
2023-02-03T18:42:44.157Z,28.15
2023-02-03T18:45:12.018Z,24.98
2023-02-03T18:47:40.308Z,22.50
2023-02-03T18:50:08.888Z,24.60
2023-02-03T18:52:38.774Z,27.38
2023-02-03T18:55:07.890Z,28.80
2023-02-03T18:57:40.101Z,24.35
2023-02-03T19:00:10.416Z,24.05
2023-02-03T19:05:09.008Z,23.25
2023-02-03T19:07:37.502Z,21.10
2023-02-03T19:10:05.764Z,23.33
2023-02-03T19:12:35.342Z,23.40
2023-02-03T19:15:03.324Z,16.92
2023-02-03T19:17:31.594Z,23.13
2023-02-03T19:19:59.449Z,19.88
2023-02-03T19:22:28.036Z,18.75
2023-02-03T19:24:56.647Z,16.60
2023-02-03T19:27:25.834Z,23.93
2023-02-03T19:29:53.305Z,18.10
2023-02-03T19:32:21.025Z,18.63
2023-02-03T19:34:48.482Z,17.60
2023-02-03T19:37:16.197Z,21.95
2023-02-03T19:39:45.145Z,23.25
2023-02-03T19:42:12.854Z,21.55
2023-02-03T19:44:40.268Z,19.10
2023-02-03T19:47:08.160Z,21.60
2023-02-03T19:49:35.502Z,21.17
2023-02-03T19:52:03.946Z,19.40
2023-02-03T19:54:31.365Z,14.15
2023-02-03T19:56:59.099Z,15.27
2023-02-03T19:59:26.806Z,15.23
2023-02-03T20:01:55.399Z,14.95
2023-02-03T20:04:24.663Z,18.23
2023-02-03T20:06:52.428Z,15.63
2023-02-03T20:09:19.716Z,17.63
2023-02-03T20:11:48.923Z,17.98
2023-02-03T20:14:16.879Z,15.43
2023-02-03T20:16:45.031Z,17.55
2023-02-03T20:19:12.845Z,20.45
2023-02-03T20:21:40.675Z,18.88
2023-02-03T20:24:07.979Z,19.63
2023-02-03T20:26:36.210Z,16.67
2023-02-03T20:29:05.164Z,17.48
2023-02-03T20:31:33.582Z,17.95
2023-02-03T20:34:01.454Z,16.05
2023-02-03T20:36:29.868Z,17.08
2023-02-03T20:38:57.956Z,17.77
2023-02-03T20:41:25.888Z,18.40
2023-02-03T20:43:54.884Z,14.02
2023-02-03T20:46:23.538Z,28.45
2023-02-03T20:48:51.894Z,28.02
2023-02-03T20:51:22.431Z,136.98
2023-02-03T20:56:22.143Z,74.70
2023-02-03T20:58:49.753Z,123.28
2023-02-03T21:01:20.856Z,193.27
2023-02-03T21:04:07.774Z,157.57
2023-02-03T21:06:36.811Z,131.57
2023-02-03T21:09:21.631Z,78.90
2023-02-03T21:11:53.211Z,64.55
2023-02-03T21:14:29.395Z,104.78
2023-02-03T21:16:57.796Z,49.13
2023-02-03T21:19:31.737Z,76.88
2023-02-03T21:22:12.722Z,54.92
2023-02-03T21:24:50.734Z,20.35
2023-02-03T21:27:25.007Z,55.58
2023-02-03T21:29:57.654Z,96.78
2023-02-03T21:32:34.750Z,59.72
2023-02-03T21:35:02.393Z,73.38
2023-02-03T21:37:41.898Z,32.17
2023-02-03T21:40:24.591Z,35.90
2023-02-03T21:42:54.505Z,40.20
2023-02-03T21:47:53.645Z,46.15
2023-02-03T21:50:41.714Z,33.70
2023-02-03T21:53:13.655Z,59.47
2023-02-03T21:55:42.798Z,62.35
2023-02-03T21:58:23.878Z,65.65
2023-02-03T22:00:54.531Z,49.88
2023-02-03T22:03:28.345Z,59.63
2023-02-03T22:06:24.136Z,49.95
2023-02-03T22:08:55.024Z,50.08
2023-02-03T22:11:24.904Z,47.63
2023-02-03T22:13:52.599Z,55.05
2023-02-03T22:16:20.214Z,32.75
2023-02-03T22:18:49.505Z,42.17
2023-02-03T22:21:18.211Z,56.72
2023-02-03T22:23:47.082Z,30.40
2023-02-03T22:26:16.291Z,23.25
2023-02-03T22:28:44.996Z,20.63
2023-02-03T22:31:13.137Z,19.55
2023-02-03T22:33:41.983Z,21.20
2023-02-03T22:36:10.655Z,13.30
2023-02-03T22:38:39.722Z,18.05
2023-02-03T22:41:08.072Z,14.93
2023-02-03T22:43:35.781Z,17.08
2023-02-03T22:46:05.023Z,13.20
2023-02-03T22:51:01.546Z,11.82
2023-02-03T22:53:30.251Z,12.40
2023-02-03T22:55:58.023Z,13.10
2023-02-03T22:58:25.959Z,11.38
2023-02-03T23:00:53.474Z,9.02
2023-02-03T23:03:21.241Z,10.60
2023-02-03T23:05:48.865Z,13.45
2023-02-03T23:08:16.946Z,9.15
2023-02-03T23:10:44.357Z,8.10
2023-02-03T23:13:12.112Z,7.70
2023-02-03T23:15:39.635Z,6.10
2023-02-03T23:18:07.252Z,8.35
2023-02-03T23:20:34.476Z,9.43
2023-02-03T23:23:02.156Z,6.20
2023-02-03T23:25:29.537Z,10.88
2023-02-03T23:27:57.323Z,7.70
2023-02-03T23:30:24.566Z,9.52
2023-02-03T23:32:52.128Z,7.68
2023-02-03T23:35:37.844Z,6.68
2023-02-03T23:38:05.497Z,7.30
2023-02-03T23:40:33.127Z,7.20
2023-02-03T23:43:01.013Z,6.18
2023-02-03T23:45:28.605Z,7.32
2023-02-03T23:47:56.230Z,6.30
2023-02-03T23:50:23.984Z,5.95
2023-02-03T23:52:51.622Z,5.00
2023-02-03T23:55:21.079Z,5.05
